createdAt,value
2023-01-04T00:00:39.926Z,1021.68
2023-01-04T00:01:39.855Z,1021.63
2023-01-04T00:02:39.907Z,1021.63
2023-01-04T00:03:40.053Z,1021.56
2023-01-04T00:04:39.825Z,1021.61
2023-01-04T00:05:39.805Z,1021.48
2023-01-04T00:06:39.846Z,1021.57
2023-01-04T00:07:39.801Z,1021.54
2023-01-04T00:08:39.779Z,1021.49
2023-01-04T00:09:39.782Z,1021.51
2023-01-04T00:10:39.755Z,1021.48
2023-01-04T00:11:39.753Z,1021.47
2023-01-04T00:12:39.736Z,1021.45
2023-01-04T00:13:39.759Z,1021.38
2023-01-04T00:14:39.716Z,1021.42
2023-01-04T00:15:39.743Z,1021.38
2023-01-04T00:16:39.765Z,1021.39
2023-01-04T00:17:39.692Z,1021.37
2023-01-04T00:18:39.700Z,1021.34
2023-01-04T00:19:39.663Z,1021.35
2023-01-04T00:20:39.644Z,1021.38
2023-01-04T00:21:39.652Z,1021.33
2023-01-04T00:22:39.632Z,1021.20
2023-01-04T00:23:39.614Z,1021.22
2023-01-04T00:24:39.620Z,1021.14
2023-01-04T00:25:39.625Z,1021.04
2023-01-04T00:26:39.583Z,1021.02
2023-01-04T00:27:39.590Z,1020.93
2023-01-04T00:28:39.569Z,1020.95
2023-01-04T00:29:39.569Z,1020.98
2023-01-04T00:30:39.541Z,1020.95
2023-01-04T00:31:39.611Z,1020.84
2023-01-04T00:32:39.524Z,1020.82
2023-01-04T00:33:39.548Z,1020.80
2023-01-04T00:34:39.534Z,1020.86
2023-01-04T00:35:46.686Z,1020.78
2023-01-04T00:36:40.495Z,1020.82
2023-01-04T00:37:39.480Z,1020.80
2023-01-04T00:38:39.465Z,1020.78
2023-01-04T00:39:39.463Z,1020.73
2023-01-04T00:40:39.453Z,1020.74
2023-01-04T00:42:02.810Z,1020.75
2023-01-04T00:42:40.421Z,1020.69
2023-01-04T00:43:39.415Z,1020.65
2023-01-04T00:44:39.403Z,1020.63
2023-01-04T00:45:39.391Z,1020.68
2023-01-04T00:46:39.420Z,1020.69
2023-01-04T00:47:39.385Z,1020.71
2023-01-04T00:48:40.454Z,1020.66
2023-01-04T00:49:39.355Z,1020.67
2023-01-04T00:50:39.340Z,1020.59
2023-01-04T00:51:39.329Z,1020.63
2023-01-04T00:52:39.328Z,1020.61
2023-01-04T00:53:39.325Z,1020.58
2023-01-04T00:54:39.289Z,1020.63
2023-01-04T00:55:39.278Z,1020.60
2023-01-04T00:56:39.290Z,1020.59
2023-01-04T00:57:39.283Z,1020.61
2023-01-04T00:58:39.251Z,1020.60
2023-01-04T00:59:39.254Z,1020.60
2023-01-04T01:00:39.226Z,1020.47
2023-01-04T01:01:39.437Z,1020.50
2023-01-04T01:02:39.519Z,1020.48
2023-01-04T01:03:39.282Z,1020.50
2023-01-04T01:04:39.193Z,1020.51
2023-01-04T01:05:39.179Z,1020.47
2023-01-04T01:06:39.189Z,1020.47
2023-01-04T01:07:39.163Z,1020.46
2023-01-04T01:08:39.162Z,1020.44
2023-01-04T01:09:39.142Z,1020.42
2023-01-04T01:10:39.136Z,1020.47
2023-01-04T01:11:39.124Z,1020.49
2023-01-04T01:12:39.098Z,1020.53
2023-01-04T01:13:39.108Z,1020.44
2023-01-04T01:14:39.083Z,1020.45
2023-01-04T01:15:39.089Z,1020.45
2023-01-04T01:16:54.226Z,1020.45
2023-01-04T01:17:40.091Z,1020.54
2023-01-04T01:18:39.051Z,1020.53
2023-01-04T01:19:39.028Z,1020.62
2023-01-04T01:20:39.017Z,1020.53
2023-01-04T01:21:39.014Z,1020.59
2023-01-04T01:22:39.005Z,1020.66
2023-01-04T01:23:39.015Z,1020.63
2023-01-04T01:24:38.995Z,1020.58
2023-01-04T01:25:38.970Z,1020.51
2023-01-04T01:26:38.956Z,1020.59
2023-01-04T01:27:38.959Z,1020.60
2023-01-04T01:28:38.935Z,1020.54
2023-01-04T01:29:38.969Z,1020.62
2023-01-04T01:30:38.927Z,1020.59
2023-01-04T01:31:38.918Z,1020.52
2023-01-04T01:32:38.910Z,1020.50
2023-01-04T01:33:38.892Z,1020.51
2023-01-04T01:34:38.873Z,1020.43
2023-01-04T01:35:38.894Z,1020.45
2023-01-04T01:36:38.855Z,1020.45
2023-01-04T01:37:38.878Z,1020.47
2023-01-04T01:38:38.841Z,1020.47
2023-01-04T01:39:38.839Z,1020.44
2023-01-04T01:40:38.820Z,1020.45
2023-01-04T01:41:38.807Z,1020.48
2023-01-04T01:42:38.798Z,1020.50
2023-01-04T01:43:38.784Z,1020.43
2023-01-04T01:44:38.817Z,1020.45
2023-01-04T01:45:38.783Z,1020.49
2023-01-04T01:46:38.895Z,1020.44
2023-01-04T01:47:38.739Z,1020.50
2023-01-04T01:48:38.741Z,1020.37
2023-01-04T01:49:38.719Z,1020.35
2023-01-04T01:50:38.732Z,1020.36
2023-01-04T01:51:38.699Z,1020.29
2023-01-04T01:52:38.698Z,1020.29
2023-01-04T01:53:38.686Z,1020.35
2023-01-04T01:54:38.671Z,1020.28
2023-01-04T01:55:38.664Z,1020.32
2023-01-04T01:56:38.650Z,1020.19
2023-01-04T01:57:38.647Z,1020.25
2023-01-04T01:58:38.629Z,1020.26
2023-01-04T01:59:38.614Z,1020.22
2023-01-04T02:00:38.621Z,1020.12
2023-01-04T02:01:38.720Z,1020.11
2023-01-04T02:02:38.781Z,1020.04
2023-01-04T02:03:38.627Z,1020.03
2023-01-04T02:04:38.566Z,1020.00
2023-01-04T02:05:38.553Z,1019.99
2023-01-04T02:06:38.557Z,1019.87
2023-01-04T02:07:38.532Z,1019.83
2023-01-04T02:08:38.527Z,1019.79
2023-01-04T02:09:38.515Z,1019.74
2023-01-04T02:10:38.513Z,1019.58
2023-01-04T02:11:38.498Z,1019.56
2023-01-04T02:12:38.479Z,1019.49
2023-01-04T02:13:38.473Z,1019.47
2023-01-04T02:14:38.456Z,1019.49
2023-01-04T02:15:38.470Z,1019.44
2023-01-04T02:16:38.488Z,1019.42
2023-01-04T02:17:38.446Z,1019.42
2023-01-04T02:18:38.428Z,1019.35
2023-01-04T02:19:38.406Z,1019.34
2023-01-04T02:20:38.411Z,1019.31
2023-01-04T02:21:38.388Z,1019.32
2023-01-04T02:22:38.394Z,1019.17
2023-01-04T02:23:38.380Z,1019.24
2023-01-04T02:24:38.366Z,1019.21
2023-01-04T02:25:38.354Z,1019.15
2023-01-04T02:26:38.334Z,1019.12
2023-01-04T02:27:38.326Z,1019.11
2023-01-04T02:28:38.337Z,1019.04
2023-01-04T02:29:38.313Z,1019.04
2023-01-04T02:30:38.302Z,1019.01
2023-01-04T02:31:38.339Z,1019.10
2023-01-04T02:32:38.290Z,1019.07
2023-01-04T02:33:38.298Z,1019.09
2023-01-04T02:34:38.251Z,1019.13
2023-01-04T02:35:38.255Z,1019.18
2023-01-04T02:36:38.234Z,1019.19
2023-01-04T02:37:38.225Z,1019.14
2023-01-04T02:38:38.216Z,1019.17
2023-01-04T02:39:38.202Z,1019.17
2023-01-04T02:40:38.190Z,1019.14
2023-01-04T02:41:38.183Z,1019.15
2023-01-04T02:42:38.179Z,1019.10
2023-01-04T02:43:38.160Z,1019.12
2023-01-04T02:44:38.156Z,1019.09
2023-01-04T02:45:38.138Z,1019.12
2023-01-04T02:46:38.187Z,1019.06
2023-01-04T02:47:38.124Z,1019.07
2023-01-04T02:48:38.110Z,1019.06
2023-01-04T02:49:38.111Z,1019.03
2023-01-04T02:50:38.081Z,1019.08
2023-01-04T02:51:38.091Z,1019.03
2023-01-04T02:52:38.072Z,1018.99
2023-01-04T02:53:38.047Z,1019.02
2023-01-04T02:54:38.059Z,1018.93
2023-01-04T02:55:38.044Z,1018.95
2023-01-04T02:56:38.029Z,1018.92
2023-01-04T02:57:38.019Z,1018.84
2023-01-04T02:58:38.008Z,1018.79
2023-01-04T02:59:38.009Z,1018.79
2023-01-04T03:00:37.994Z,1018.76
2023-01-04T03:01:38.048Z,1018.69
2023-01-04T03:02:38.132Z,1018.66
2023-01-04T03:03:38.047Z,1018.68
2023-01-04T03:04:37.948Z,1018.62
2023-01-04T03:05:37.976Z,1018.57
2023-01-04T03:06:37.921Z,1018.57
2023-01-04T03:07:37.909Z,1018.53
2023-01-04T03:08:37.896Z,1018.61
2023-01-04T03:09:37.897Z,1018.54
2023-01-04T03:10:37.879Z,1018.59
2023-01-04T03:11:37.886Z,1018.61
2023-01-04T03:12:37.850Z,1018.50
2023-01-04T03:13:37.848Z,1018.50
2023-01-04T03:14:37.841Z,1018.51
2023-01-04T03:15:37.825Z,1018.53
2023-01-04T03:16:37.896Z,1018.51
2023-01-04T03:17:37.812Z,1018.57
2023-01-04T03:18:37.788Z,1018.43
2023-01-04T03:19:37.784Z,1018.41
2023-01-04T03:20:37.769Z,1018.37
2023-01-04T03:21:37.791Z,1018.45
2023-01-04T03:22:37.782Z,1018.37
2023-01-04T03:23:37.757Z,1018.36
2023-01-04T03:24:37.737Z,1018.37
2023-01-04T03:25:37.719Z,1018.32
2023-01-04T03:26:37.707Z,1018.30
2023-01-04T03:27:37.697Z,1018.34
2023-01-04T03:28:37.689Z,1018.30
2023-01-04T03:29:37.690Z,1018.34
2023-01-04T03:30:37.669Z,1018.31
2023-01-04T03:31:37.836Z,1018.24
2023-01-04T03:32:37.662Z,1018.20
2023-01-04T03:33:37.634Z,1018.13
2023-01-04T03:34:37.632Z,1018.04
2023-01-04T03:35:37.638Z,1018.01
2023-01-04T03:36:37.606Z,1017.98
2023-01-04T03:37:37.607Z,1018.00
2023-01-04T03:38:37.578Z,1018.03
2023-01-04T03:39:37.573Z,1018.00
2023-01-04T03:40:37.582Z,1018.01
2023-01-04T03:41:37.565Z,1018.01
2023-01-04T03:42:37.535Z,1018.02
2023-01-04T03:43:37.527Z,1017.96
2023-01-04T03:44:37.525Z,1017.91
2023-01-04T03:45:37.509Z,1017.86
2023-01-04T03:46:37.568Z,1017.87
2023-01-04T03:47:37.491Z,1017.85
2023-01-04T03:48:37.472Z,1017.89
2023-01-04T03:49:37.467Z,1017.82
2023-01-04T03:50:37.461Z,1017.86
2023-01-04T03:51:37.443Z,1017.87
2023-01-04T03:52:37.429Z,1017.85
2023-01-04T03:53:37.439Z,1017.88
2023-01-04T03:54:37.419Z,1017.81
2023-01-04T03:55:37.407Z,1017.87
2023-01-04T03:56:37.424Z,1017.80
2023-01-04T03:57:37.389Z,1017.70
2023-01-04T03:58:37.379Z,1017.75
2023-01-04T03:59:37.371Z,1017.71
2023-01-04T04:00:37.368Z,1017.66
2023-01-04T04:01:37.508Z,1017.59
2023-01-04T04:02:37.337Z,1017.66
2023-01-04T04:03:37.395Z,1017.55
2023-01-04T04:04:37.311Z,1017.61
2023-01-04T04:05:37.293Z,1017.53
2023-01-04T04:06:37.298Z,1017.52
2023-01-04T04:07:37.284Z,1017.51
2023-01-04T04:08:37.271Z,1017.51
2023-01-04T04:09:37.272Z,1017.53
2023-01-04T04:10:37.251Z,1017.39
2023-01-04T04:11:37.237Z,1017.38
2023-01-04T04:12:37.227Z,1017.34
2023-01-04T04:13:37.228Z,1017.35
2023-01-04T04:14:37.201Z,1017.26
2023-01-04T04:15:37.203Z,1017.19
2023-01-04T04:16:37.232Z,1017.17
2023-01-04T04:17:37.183Z,1017.14
2023-01-04T04:18:37.168Z,1017.12
2023-01-04T04:19:37.154Z,1017.14
2023-01-04T04:20:37.151Z,1017.10
2023-01-04T04:21:37.145Z,1016.98
2023-01-04T04:22:37.117Z,1016.98
2023-01-04T04:23:37.121Z,1016.92
2023-01-04T04:24:37.095Z,1016.94
2023-01-04T04:25:37.119Z,1017.02
2023-01-04T04:26:37.084Z,1016.95
2023-01-04T04:27:37.062Z,1016.91
2023-01-04T04:28:37.055Z,1016.89
2023-01-04T04:29:37.056Z,1016.88
2023-01-04T04:30:37.051Z,1016.83
2023-01-04T04:31:37.058Z,1016.75
2023-01-04T04:32:37.023Z,1016.78
2023-01-04T04:33:37.007Z,1016.78
2023-01-04T04:34:36.997Z,1016.75
2023-01-04T04:35:36.987Z,1016.70
2023-01-04T04:36:36.991Z,1016.69
2023-01-04T04:37:36.957Z,1016.66
2023-01-04T04:38:36.964Z,1016.65
2023-01-04T04:39:36.943Z,1016.61
2023-01-04T04:40:36.942Z,1016.60
2023-01-04T04:41:36.985Z,1016.54
2023-01-04T04:42:36.904Z,1016.43
2023-01-04T04:43:36.902Z,1016.45
2023-01-04T04:44:36.898Z,1016.46
2023-01-04T04:45:36.963Z,1016.49
2023-01-04T04:46:36.886Z,1016.50
2023-01-04T04:47:36.871Z,1016.49
2023-01-04T04:48:36.844Z,1016.41
2023-01-04T04:49:36.853Z,1016.38
2023-01-04T04:50:36.846Z,1016.36
2023-01-04T04:51:36.818Z,1016.34
2023-01-04T04:52:36.822Z,1016.39
2023-01-04T04:53:36.806Z,1016.41
2023-01-04T04:54:36.786Z,1016.36
2023-01-04T04:55:36.781Z,1016.37
2023-01-04T04:56:36.769Z,1016.33
2023-01-04T04:57:36.781Z,1016.32
2023-01-04T04:58:36.742Z,1016.26
2023-01-04T04:59:36.743Z,1016.29
2023-01-04T05:00:36.721Z,1016.23
2023-01-04T05:01:36.942Z,1016.21
2023-01-04T05:02:36.879Z,1016.26
2023-01-04T05:03:36.802Z,1016.23
2023-01-04T05:04:36.685Z,1016.19
2023-01-04T05:05:36.670Z,1016.14
2023-01-04T05:06:36.659Z,1016.14
2023-01-04T05:07:36.654Z,1016.15
2023-01-04T05:08:36.645Z,1016.10
2023-01-04T05:09:36.643Z,1016.07
2023-01-04T05:10:36.617Z,1016.08
2023-01-04T05:11:36.612Z,1016.05
2023-01-04T05:12:36.602Z,1016.01
2023-01-04T05:13:36.606Z,1016.02
2023-01-04T05:14:36.595Z,1016.02
2023-01-04T05:15:36.588Z,1015.89
2023-01-04T05:16:36.605Z,1015.88
2023-01-04T05:17:36.554Z,1015.83
2023-01-04T05:18:36.545Z,1015.83
2023-01-04T05:19:36.521Z,1015.75
2023-01-04T05:20:36.541Z,1015.69
2023-01-04T05:21:36.508Z,1015.72
2023-01-04T05:22:36.515Z,1015.67
2023-01-04T05:23:36.484Z,1015.65
2023-01-04T05:24:36.473Z,1015.61
2023-01-04T05:25:36.467Z,1015.60
2023-01-04T05:26:36.465Z,1015.63
2023-01-04T05:27:36.438Z,1015.49
2023-01-04T05:28:36.441Z,1015.60
2023-01-04T05:29:36.513Z,1015.50
2023-01-04T05:30:36.424Z,1015.45
2023-01-04T05:31:36.484Z,1015.40
2023-01-04T05:32:36.394Z,1015.36
2023-01-04T05:33:36.388Z,1015.35
2023-01-04T05:34:36.375Z,1015.31
2023-01-04T05:35:36.375Z,1015.24
2023-01-04T05:36:36.359Z,1015.29
2023-01-04T05:37:36.333Z,1015.28
2023-01-04T05:38:36.324Z,1015.26
2023-01-04T05:39:36.321Z,1015.27
2023-01-04T05:40:36.310Z,1015.21
2023-01-04T05:41:36.324Z,1015.21
2023-01-04T05:42:36.325Z,1015.22
2023-01-04T05:43:36.306Z,1015.18
2023-01-04T05:44:36.359Z,1015.14
2023-01-04T05:45:36.391Z,1015.05
2023-01-04T05:46:36.469Z,1015.09
2023-01-04T05:47:36.285Z,1015.07
2023-01-04T05:48:36.239Z,1015.00
2023-01-04T05:49:36.259Z,1015.05
2023-01-04T05:50:36.236Z,1015.05
2023-01-04T05:51:36.227Z,1015.02
2023-01-04T05:52:36.192Z,1015.02
2023-01-04T05:53:36.256Z,1014.93
2023-01-04T05:54:36.166Z,1014.91
2023-01-04T05:55:36.151Z,1014.93
2023-01-04T05:56:36.155Z,1014.96
2023-01-04T05:57:36.141Z,1014.90
2023-01-04T05:58:36.147Z,1014.86
2023-01-04T05:59:41.512Z,1014.87
2023-01-04T06:00:37.101Z,1014.86
2023-01-04T06:01:36.171Z,1014.77
2023-01-04T06:02:36.180Z,1014.77
2023-01-04T06:03:36.141Z,1014.69
2023-01-04T06:04:36.068Z,1014.72
2023-01-04T06:05:36.060Z,1014.73
2023-01-04T06:06:36.049Z,1014.73
2023-01-04T06:07:36.033Z,1014.69
2023-01-04T06:08:36.023Z,1014.75
2023-01-04T06:09:36.032Z,1014.66
2023-01-04T06:10:36.011Z,1014.68
2023-01-04T06:11:35.996Z,1014.65
2023-01-04T06:12:35.986Z,1014.56
2023-01-04T06:13:35.985Z,1014.55
2023-01-04T06:14:35.970Z,1014.54
2023-01-04T06:15:41.066Z,1014.43
2023-01-04T06:16:37.024Z,1014.49
2023-01-04T06:17:35.949Z,1014.48
2023-01-04T06:18:35.921Z,1014.50
2023-01-04T06:19:35.927Z,1014.44
2023-01-04T06:20:35.915Z,1014.48
2023-01-04T06:21:35.898Z,1014.48
2023-01-04T06:22:35.896Z,1014.42
2023-01-04T06:23:35.887Z,1014.38
2023-01-04T06:24:35.862Z,1014.39
2023-01-04T06:25:35.911Z,1014.37
2023-01-04T06:26:35.839Z,1014.30
2023-01-04T06:27:35.827Z,1014.21
2023-01-04T06:28:40.705Z,1014.24
2023-01-04T06:29:36.803Z,1014.14
2023-01-04T06:30:35.839Z,1014.21
2023-01-04T06:31:35.793Z,1014.20
2023-01-04T06:32:35.782Z,1014.28
2023-01-04T06:33:35.782Z,1014.25
2023-01-04T06:34:35.784Z,1014.19
2023-01-04T06:35:35.750Z,1014.07
2023-01-04T06:36:35.750Z,1014.17
2023-01-04T06:37:35.719Z,1014.11
2023-01-04T06:38:35.715Z,1014.12
2023-01-04T06:39:35.702Z,1014.17
2023-01-04T06:40:35.683Z,1014.09
2023-01-04T06:41:35.672Z,1014.01
2023-01-04T06:42:35.671Z,1013.99
2023-01-04T06:43:35.660Z,1014.03
2023-01-04T06:44:35.682Z,1014.04
2023-01-04T06:45:35.639Z,1013.85
2023-01-04T06:46:35.710Z,1013.89
2023-01-04T06:47:35.626Z,1013.80
2023-01-04T06:48:35.612Z,1013.85
2023-01-04T06:49:35.615Z,1013.83
2023-01-04T06:50:35.595Z,1013.80
2023-01-04T06:51:35.571Z,1013.85
2023-01-04T06:52:35.586Z,1013.78
2023-01-04T06:53:35.552Z,1013.79
2023-01-04T06:54:35.576Z,1013.81
2023-01-04T06:55:35.524Z,1013.76
2023-01-04T06:56:35.563Z,1013.71
2023-01-04T06:57:35.550Z,1013.70
2023-01-04T06:58:35.552Z,1013.65
2023-01-04T06:59:35.487Z,1013.59
2023-01-04T07:00:35.480Z,1013.60
2023-01-04T07:01:35.569Z,1013.57
2023-01-04T07:02:35.611Z,1013.62
2023-01-04T07:03:35.469Z,1013.55
2023-01-04T07:04:35.511Z,1013.55
2023-01-04T07:05:35.461Z,1013.52
2023-01-04T07:06:35.417Z,1013.53
2023-01-04T07:07:35.420Z,1013.44
2023-01-04T07:08:35.398Z,1013.46
2023-01-04T07:09:35.395Z,1013.44
2023-01-04T07:10:35.388Z,1013.37
2023-01-04T07:11:35.361Z,1013.48
2023-01-04T07:12:35.356Z,1013.36
2023-01-04T07:13:35.341Z,1013.38
2023-01-04T07:14:35.357Z,1013.36
2023-01-04T07:15:38.250Z,1013.39
2023-01-04T07:16:36.357Z,1013.31
2023-01-04T07:17:35.295Z,1013.28
2023-01-04T07:18:35.293Z,1013.18
2023-01-04T07:19:35.279Z,1013.20
2023-01-04T07:20:35.284Z,1013.20
2023-01-04T07:21:35.280Z,1013.15
2023-01-04T07:22:35.268Z,1013.13
2023-01-04T07:23:35.244Z,1013.21
2023-01-04T07:24:35.243Z,1013.16
2023-01-04T07:25:35.245Z,1013.06
2023-01-04T07:26:35.217Z,1013.13
2023-01-04T07:27:35.208Z,1013.06
2023-01-04T07:28:35.180Z,1013.02
2023-01-04T07:29:35.183Z,1012.99
2023-01-04T07:30:35.227Z,1012.96
2023-01-04T07:31:35.308Z,1013.02
2023-01-04T07:32:35.159Z,1012.81
2023-01-04T07:33:35.125Z,1012.94
2023-01-04T07:34:35.120Z,1012.91
2023-01-04T07:35:35.122Z,1012.88
2023-01-04T07:36:35.105Z,1012.78
2023-01-04T07:37:35.122Z,1012.84
2023-01-04T07:38:35.121Z,1012.84
2023-01-04T07:39:35.074Z,1012.75
2023-01-04T07:40:35.073Z,1012.70
2023-01-04T07:41:35.075Z,1012.64
2023-01-04T07:42:35.039Z,1012.67
2023-01-04T07:43:35.049Z,1012.69
2023-01-04T07:44:35.030Z,1012.68
2023-01-04T07:45:35.003Z,1012.63
2023-01-04T07:46:35.070Z,1012.53
2023-01-04T07:47:34.995Z,1012.52
2023-01-04T07:48:34.996Z,1012.54
2023-01-04T07:49:34.969Z,1012.59
2023-01-04T07:50:34.971Z,1012.55
2023-01-04T07:51:34.948Z,1012.49
2023-01-04T07:52:34.953Z,1012.38
2023-01-04T07:53:35.068Z,1012.42
2023-01-04T07:54:34.940Z,1012.39
2023-01-04T07:55:34.912Z,1012.43
2023-01-04T07:56:34.902Z,1012.38
2023-01-04T07:57:34.883Z,1012.29
2023-01-04T07:58:34.871Z,1012.35
2023-01-04T07:59:34.860Z,1012.31
2023-01-04T08:00:34.856Z,1012.32
2023-01-04T08:01:34.966Z,1012.27
2023-01-04T08:02:35.059Z,1012.10
2023-01-04T08:03:34.826Z,1012.12
2023-01-04T08:04:35.623Z,1012.11
2023-01-04T08:05:34.812Z,1012.10
2023-01-04T08:06:34.788Z,1012.03
2023-01-04T08:07:34.775Z,1012.04
2023-01-04T08:08:34.778Z,1012.05
2023-01-04T08:09:34.791Z,1012.07
2023-01-04T08:10:34.768Z,1012.15
2023-01-04T08:11:34.751Z,1012.23
2023-01-04T08:12:34.725Z,1012.13
2023-01-04T08:13:34.718Z,1012.08
2023-01-04T08:14:34.704Z,1012.16
2023-01-04T08:15:34.756Z,1012.15
2023-01-04T08:16:34.836Z,1012.11
2023-01-04T08:17:34.686Z,1012.13
2023-01-04T08:18:34.673Z,1012.10
2023-01-04T08:19:34.661Z,1011.97
2023-01-04T08:20:34.652Z,1011.99
2023-01-04T08:21:34.672Z,1011.92
2023-01-04T08:22:34.629Z,1012.00
2023-01-04T08:23:34.614Z,1011.93
2023-01-04T08:24:34.603Z,1011.96
2023-01-04T08:25:34.615Z,1011.87
2023-01-04T08:26:34.583Z,1011.96
2023-01-04T08:27:34.609Z,1011.80
2023-01-04T08:28:34.573Z,1011.92
2023-01-04T08:29:35.372Z,1011.86
2023-01-04T08:30:34.547Z,1011.93
2023-01-04T08:31:34.590Z,1011.86
2023-01-04T08:32:34.545Z,1011.89
2023-01-04T08:33:34.503Z,1011.86
2023-01-04T08:34:34.520Z,1011.89
2023-01-04T08:35:34.490Z,1011.92
2023-01-04T08:36:34.485Z,1011.94
2023-01-04T08:37:34.473Z,1011.86
2023-01-04T08:39:00.847Z,1011.90
2023-01-04T08:39:35.508Z,1011.82
2023-01-04T08:40:58.486Z,1011.81
2023-01-04T08:42:35.423Z,1011.86
2023-01-04T08:43:34.416Z,1011.83
2023-01-04T08:44:34.433Z,1011.85
2023-01-04T08:45:34.417Z,1011.84
2023-01-04T08:46:34.433Z,1011.79
2023-01-04T08:47:34.370Z,1011.87
2023-01-04T08:48:34.366Z,1011.82
2023-01-04T08:49:34.352Z,1011.85
2023-01-04T08:50:34.342Z,1011.87
2023-01-04T08:51:34.340Z,1011.79
2023-01-04T08:52:34.313Z,1011.91
2023-01-04T08:53:34.307Z,1011.92
2023-01-04T08:54:34.299Z,1011.87
2023-01-04T08:55:34.285Z,1011.86
2023-01-04T08:56:34.278Z,1011.86
2023-01-04T08:57:34.282Z,1011.77
2023-01-04T08:58:34.257Z,1011.85
2023-01-04T08:59:34.256Z,1011.75
2023-01-04T09:00:34.237Z,1011.68
2023-01-04T09:01:34.351Z,1011.66
2023-01-04T09:02:34.430Z,1011.59
2023-01-04T09:03:34.199Z,1011.71
2023-01-04T09:04:34.271Z,1011.67
2023-01-04T09:05:34.322Z,1011.68
2023-01-04T09:06:34.160Z,1011.64
2023-01-04T09:07:34.160Z,1011.64
2023-01-04T09:08:34.148Z,1011.63
2023-01-04T09:09:34.153Z,1011.58
2023-01-04T09:10:34.120Z,1011.53
2023-01-04T09:11:34.127Z,1011.51
2023-01-04T09:12:34.105Z,1011.59
2023-01-04T09:13:34.104Z,1011.50
2023-01-04T09:14:34.094Z,1011.51
2023-01-04T09:15:34.289Z,1011.47
2023-01-04T09:16:34.145Z,1011.41
2023-01-04T09:17:34.059Z,1011.46
2023-01-04T09:18:34.047Z,1011.37
2023-01-04T09:19:34.032Z,1011.43
2023-01-04T09:20:34.046Z,1011.45
2023-01-04T09:21:34.083Z,1011.38
2023-01-04T09:22:34.054Z,1011.21
2023-01-04T09:23:33.992Z,1011.36
2023-01-04T09:24:33.994Z,1011.29
2023-01-04T09:25:33.966Z,1011.30
2023-01-04T09:26:33.949Z,1011.25
2023-01-04T09:27:33.952Z,1011.26
2023-01-04T09:28:33.932Z,1011.26
2023-01-04T09:29:33.939Z,1011.21
2023-01-04T09:30:33.925Z,1011.18
2023-01-04T09:31:34.016Z,1011.16
2023-01-04T09:32:33.903Z,1011.22
2023-01-04T09:34:11.403Z,1011.05
2023-01-04T09:34:34.863Z,1011.06
2023-01-04T09:35:33.856Z,1011.10
2023-01-04T09:36:33.853Z,1011.13
2023-01-04T09:37:33.869Z,1011.12
2023-01-04T09:38:33.819Z,1010.99
2023-01-04T09:39:33.816Z,1011.04
2023-01-04T09:40:33.821Z,1011.02
2023-01-04T09:41:33.797Z,1010.96
2023-01-04T09:42:37.247Z,1011.00
2023-01-04T09:43:33.788Z,1011.07
2023-01-04T09:45:11.959Z,1011.00
2023-01-04T09:45:34.765Z,1011.01
2023-01-04T09:46:33.778Z,1010.98
2023-01-04T09:47:33.768Z,1010.99
2023-01-04T09:48:33.732Z,1010.87
2023-01-04T09:49:33.731Z,1010.82
2023-01-04T09:50:33.705Z,1010.75
2023-01-04T09:51:33.690Z,1010.83
2023-01-04T09:52:33.690Z,1010.80
2023-01-04T09:53:41.216Z,1010.74
2023-01-04T09:54:41.189Z,1010.75
2023-01-04T09:55:41.835Z,1010.80
2023-01-04T09:56:41.179Z,1010.85
2023-01-04T09:57:33.635Z,1010.74
2023-01-04T09:58:33.621Z,1010.69
2023-01-04T09:59:33.613Z,1010.70
2023-01-04T10:00:36.320Z,1010.71
2023-01-04T10:01:34.782Z,1010.68
2023-01-04T10:02:33.765Z,1010.54
2023-01-04T10:03:33.641Z,1010.64
2023-01-04T10:04:33.554Z,1010.54
2023-01-04T10:05:33.594Z,1010.57
2023-01-04T10:06:33.534Z,1010.55
2023-01-04T10:07:33.517Z,1010.46
2023-01-04T10:08:33.519Z,1010.51
2023-01-04T10:09:33.506Z,1010.45
2023-01-04T10:10:33.518Z,1010.46
2023-01-04T10:11:33.482Z,1010.42
2023-01-04T10:12:33.470Z,1010.41
2023-01-04T10:13:33.470Z,1010.38
2023-01-04T10:14:33.448Z,1010.38
2023-01-04T10:15:33.468Z,1010.34
2023-01-04T10:17:01.547Z,1010.28
2023-01-04T10:19:59.532Z,1010.38
2023-01-04T10:21:34.964Z,1010.24
2023-01-04T10:22:33.381Z,1010.17
2023-01-04T10:23:33.356Z,1010.17
2023-01-04T10:24:33.348Z,1010.17
2023-01-04T10:25:33.334Z,1010.11
2023-01-04T10:26:33.328Z,1010.01
2023-01-04T10:27:35.445Z,1009.95
2023-01-04T10:28:34.295Z,1009.97
2023-01-04T10:29:33.300Z,1009.99
2023-01-04T10:30:33.295Z,1010.07
2023-01-04T10:31:39.515Z,1010.14
2023-01-04T10:32:34.327Z,1010.01
2023-01-04T10:33:33.282Z,1010.01
2023-01-04T10:34:33.241Z,1010.08
2023-01-04T10:35:33.239Z,1010.02
2023-01-04T10:36:33.211Z,1010.02
2023-01-04T10:37:33.239Z,1009.98
2023-01-04T10:38:33.213Z,1009.97
2023-01-04T10:39:33.452Z,1009.89
2023-01-04T10:40:33.186Z,1009.95
2023-01-04T10:41:33.165Z,1009.80
2023-01-04T10:42:33.168Z,1009.83
2023-01-04T10:44:10.030Z,1009.85
2023-01-04T10:44:34.135Z,1009.77
2023-01-04T10:45:33.129Z,1009.76
2023-01-04T10:46:33.163Z,1009.81
2023-01-04T10:47:33.098Z,1009.80
2023-01-04T10:48:33.103Z,1009.80
2023-01-04T10:49:33.103Z,1009.70
2023-01-04T10:50:33.080Z,1009.68
2023-01-04T10:51:33.063Z,1009.67
2023-01-04T10:52:33.053Z,1009.60
2023-01-04T10:53:33.040Z,1009.69
2023-01-04T10:54:33.037Z,1009.58
2023-01-04T10:55:33.019Z,1009.53
2023-01-04T10:56:33.003Z,1009.57
2023-01-04T10:57:33.013Z,1009.50
2023-01-04T10:58:32.991Z,1009.53
2023-01-04T10:59:32.969Z,1009.39
2023-01-04T11:00:33.009Z,1009.39
2023-01-04T11:01:33.198Z,1009.45
2023-01-04T11:02:33.037Z,1009.41
2023-01-04T11:03:32.955Z,1009.36
2023-01-04T11:04:32.925Z,1009.40
2023-01-04T11:05:32.965Z,1009.45
2023-01-04T11:06:32.914Z,1009.58
2023-01-04T11:07:32.899Z,1009.57
2023-01-04T11:08:32.885Z,1009.58
2023-01-04T11:09:32.878Z,1009.59
2023-01-04T11:10:32.888Z,1009.49
2023-01-04T11:11:32.861Z,1009.54
2023-01-04T11:12:32.835Z,1009.47
2023-01-04T11:13:32.843Z,1009.43
2023-01-04T11:14:37.177Z,1009.48
2023-01-04T11:15:32.819Z,1009.45
2023-01-04T11:16:32.905Z,1009.48
2023-01-04T11:17:32.788Z,1009.39
2023-01-04T11:18:32.784Z,1009.38
2023-01-04T11:19:32.767Z,1009.40
2023-01-04T11:20:37.785Z,1009.39
2023-01-04T11:21:33.755Z,1009.36
2023-01-04T11:22:32.763Z,1009.40
2023-01-04T11:23:32.718Z,1009.35
2023-01-04T11:24:33.747Z,1009.34
2023-01-04T11:25:35.949Z,1009.24
2023-01-04T11:26:32.706Z,1009.27
2023-01-04T11:27:32.692Z,1009.18
2023-01-04T11:28:32.681Z,1009.12
2023-01-04T11:29:32.678Z,1009.22
2023-01-04T11:30:32.668Z,1009.20
2023-01-04T11:31:32.676Z,1009.19
2023-01-04T11:32:32.617Z,1009.13
2023-01-04T11:33:32.619Z,1009.09
2023-01-04T11:34:32.617Z,1009.06
2023-01-04T11:35:34.502Z,1008.96
2023-01-04T11:36:33.585Z,1009.10
2023-01-04T11:37:32.628Z,1009.04
2023-01-04T11:38:32.575Z,1008.91
2023-01-04T11:39:32.553Z,1008.90
2023-01-04T11:40:32.534Z,1008.87
2023-01-04T11:41:32.539Z,1008.91
2023-01-04T11:42:32.523Z,1008.89
2023-01-04T11:43:32.524Z,1008.82
2023-01-04T11:44:32.503Z,1008.86
2023-01-04T11:45:32.521Z,1008.78
2023-01-04T11:46:32.618Z,1008.82
2023-01-04T11:47:33.447Z,1008.72
2023-01-04T11:48:32.468Z,1008.76
2023-01-04T11:49:32.456Z,1008.79
2023-01-04T11:50:32.436Z,1008.72
2023-01-04T11:51:32.457Z,1008.70
2023-01-04T11:52:32.438Z,1008.74
2023-01-04T11:53:32.431Z,1008.63
2023-01-04T11:54:32.394Z,1008.76
2023-01-04T11:55:32.395Z,1008.70
2023-01-04T11:56:32.388Z,1008.71
2023-01-04T11:57:32.378Z,1008.60
2023-01-04T11:58:32.356Z,1008.68
2023-01-04T11:59:32.340Z,1008.62
2023-01-04T12:00:32.358Z,1008.59
2023-01-04T12:01:32.404Z,1008.58
2023-01-04T12:03:00.078Z,1008.54
2023-01-04T12:03:33.299Z,1008.55
2023-01-04T12:04:35.619Z,1008.53
2023-01-04T12:05:32.295Z,1008.52
2023-01-04T12:06:32.296Z,1008.48
2023-01-04T12:07:32.258Z,1008.44
2023-01-04T12:08:40.968Z,1008.48
2023-01-04T12:09:40.976Z,1008.46